Brampton-Caledon Airport

CNC3 · 安大略, 加拿大

罗盘
风向 的 Brampton-Caledon Airport 8/26
风: 0 kt, 0 beaufort


改变
0 ft 1.000 2.000 3.000 4.000 5.000
Cloud Cloud Cloud Cloud Cloud Cloud Cloud Cloud
OVC 2.500
METAR CYYZ 041500Z 00000KT 2 1/2SM -SN OVC025 M15/M19 A3042 RMK SN3SC5 WIND EST SLP320

METAR Brampton-Caledon Airport - CNC3

Brampton-Caledon Airport是,加拿大中的中型机场。 该机场有2条跑道: 8/26 和 15/33. 该领域的国际民航组织标志是CNC3.

这份报告是针对2023年2月4日 10:00, 当地时间在多倫多皮爾遜國際機場进行的。

机场观察

可变方向的风很小或没有风。

可见度为2½ mi。

有乌云密布在2.500 ft的高度。 破损或更高的上限为2.500 ft。

当前天气为光 雪。 温度和风寒是-15 °C。 露点为-19 °C,相对湿度为72%。 海平面上的气压为30,42 inHg (QNH)。

白天

今天,太阳从07:32升起,在17:34降落。 这适用于Brampton-Caledon Airport,世界夏令时可能有所不同。 当地时间与世界标准时间之间的时差为-5 小时。 当前,没有夏令时有效。

公司介绍

我们没有关于这个机场的公司信息。

体会

到Vliegles.nl去找飞行课程,跳伞和其他飞行体验。 浏览页面,了解Brampton-Caledon Airport附近所有可用的活动。 你也可以使用搜索功能来寻找你所在地附近的特定飞行课程、跳伞或其他飞行体验。

跑道

Id 标题 侧风 逆风 侧风 %
8/26 071°-251°
15/33 141°-321°

逆风成分最大的方向会被突出显示,并用于横风计算。 这并不一定意味着这个方向在使用。

乌云

2.500 ft OVC 乌云密布

温度 & 天气

天气 光 雪
温度 -15 °C
露点 -19 °C
相对湿度 72%
Kp-index 0 (0-9)

评论

SLP320海平面压力为30,47 inHg (30,47 inHg)
SN3SC5 WIND EST

白天

日出
07:31
中午
12:32
日落
17:33 (6:39)

小工具

你想在你的网站上有一个关于Brampton-Caledon Airport的当前航空天气(METAR)的小部件吗?

显示HTML代码

我们和第三方通过cookies跟踪您在我们网站上的互联网行为。如果你继续,我们认为你同意我们的饼干政策